Terminal Aerodrome Forecast
Issued by NWS North Platte, NE

Home | Current Version | Previous Version | Graphics & Text | Print | Product List | Glossary On
Versions: 1 2 3 4 5 6 7 8 9 10 11 12 13 14 15 16 17 18 19 20
000
FTUS43 KLBF 251700
TAFVTN
TAF
KVTN 251740Z 2518/2618 07008KT P6SM -RA OVC007
      TEMPO 2518/2522 2SM RA BKN015
     FM260600 02008KT P6SM VCSH OVC015
     FM261200 33008KT 5SM BR OVC025
     FM261600 35008KT P6SM OVC025=

USA.gov is the U.S. government's official web portal to all federal, state and local government web resources and services.